Time;durP1;ratioP1;P1;durP2;ratioP2;P2;SDS_P1;SDS_P2;PMS_P1;PMS_P2;Temp;Humidity;BMP_temperature;BMP_pressure;BME280_temperature;BME280_humidity;BME280_pressure;Samples;Min_cycle;Max_cycle;Signal;HPM_P1;HPM_P2
2023/08/01 00:01:26;;;;;;;20.67;15.48;;;;;;;15.20;100.00;99754.75;5300929;28;20040;-80
2023/08/01 00:03:58;;;;;;;19.87;14.50;;;;;;;15.16;100.00;99737.44;5298349;28;20434;-79
2023/08/01 00:06:29;;;;;;;21.17;15.17;;;;;;;15.13;100.00;99737.59;5299418;28;20039;-80
2023/08/01 00:09:00;;;;;;;18.53;14.50;;;;;;;15.12;100.00;99749.03;5297707;28;20035;-80
2023/08/01 00:11:32;;;;;;;18.73;14.00;;;;;;;15.08;100.00;99743.06;5291411;28;20090;-78
2023/08/01 00:14:03;;;;;;;18.40;13.80;;;;;;;15.07;100.00;99733.50;5292673;28;20090;-79
2023/08/01 00:16:35;;;;;;;19.10;13.23;;;;;;;15.05;100.00;99730.13;5287161;28;20119;-78
2023/08/01 00:19:06;;;;;;;18.90;14.17;;;;;;;15.02;100.00;99742.50;5284699;28;20493;-79
2023/08/01 00:21:38;;;;;;;21.23;13.43;;;;;;;14.99;100.00;99745.28;5284341;28;20032;-79
2023/08/01 00:24:09;;;;;;;15.60;13.17;;;;;;;14.95;100.00;99749.81;5288511;28;20028;-80
2023/08/01 00:26:41;;;;;;;16.43;13.20;;;;;;;14.97;100.00;99744.50;5285739;28;20117;-79
2023/08/01 00:29:12;;;;;;;22.57;13.90;;;;;;;14.92;100.00;99740.34;5283911;28;20098;-80
2023/08/01 00:31:43;;;;;;;16.27;14.03;;;;;;;14.89;100.00;99737.00;5284209;28;20028;-81
2023/08/01 00:34:15;;;;;;;22.50;14.13;;;;;;;14.87;100.00;99731.81;5283110;28;20036;-81
2023/08/01 00:36:46;;;;;;;21.47;13.73;;;;;;;14.84;100.00;99726.72;5283482;28;20025;-80
2023/08/01 00:39:17;;;;;;;19.87;13.70;;;;;;;14.85;100.00;99730.22;5299429;28;20024;-80
2023/08/01 00:41:49;;;;;;;26.37;14.00;;;;;;;14.83;100.00;99730.28;5283335;28;20086;-80
2023/08/01 00:44:20;;;;;;;17.90;13.30;;;;;;;14.81;100.00;99728.63;5282420;28;20036;-78
2023/08/01 00:46:52;;;;;;;22.73;14.90;;;;;;;14.80;100.00;99734.84;5299078;28;20083;-80
2023/08/01 00:49:23;;;;;;;18.23;14.47;;;;;;;14.75;100.00;99724.53;5283414;28;20443;-80
2023/08/01 00:51:55;;;;;;;20.10;14.37;;;;;;;14.68;100.00;99726.63;5282853;28;20043;-79
2023/08/01 00:54:27;;;;;;;18.07;13.70;;;;;;;14.65;100.00;99725.88;5283226;28;20499;-79
2023/08/01 00:56:58;;;;;;;22.70;14.23;;;;;;;14.62;100.00;99736.50;5283056;28;20036;-81
2023/08/01 00:59:30;;;;;;;24.03;13.97;;;;;;;14.55;100.00;99736.78;5286474;28;20541;-80
2023/08/01 01:02:01;;;;;;;18.10;13.90;;;;;;;14.53;100.00;99735.16;5287079;28;20036;-80
2023/08/01 01:04:33;;;;;;;20.52;13.02;;;;;;;14.49;100.00;99731.81;5287233;28;20032;-80
2023/08/01 01:07:06;;;;;;;19.73;13.47;;;;;;;14.47;100.00;99730.19;5287032;28;20036;-80
2023/08/01 01:09:38;;;;;;;19.45;13.23;;;;;;;14.42;100.00;99717.28;5286941;28;20074;-81
2023/08/01 01:12:09;;;;;;;21.50;13.33;;;;;;;14.37;100.00;99720.09;5287273;28;20422;-80
2023/08/01 01:14:41;;;;;;;20.67;12.93;;;;;;;14.37;100.00;99717.47;5285577;28;20043;-81
2023/08/01 01:17:12;;;;;;;19.47;13.27;;;;;;;14.29;100.00;99711.75;5287144;28;20036;-80
2023/08/01 01:19:44;;;;;;;17.33;13.03;;;;;;;14.25;100.00;99717.19;5286871;28;20082;-80
2023/08/01 01:22:16;;;;;;;19.80;14.20;;;;;;;14.21;100.00;99714.69;5287703;28;20475;-79
2023/08/01 01:24:49;;;;;;;20.95;14.25;;;;;;;14.22;100.00;99716.41;5288655;28;20559;-79
2023/08/01 01:27:20;;;;;;;21.13;13.40;;;;;;;14.16;100.00;99715.84;5287439;28;20036;-79
2023/08/01 01:29:53;;;;;;;24.90;13.05;;;;;;;14.14;100.00;99717.69;5286051;28;20040;-81
2023/08/01 01:32:25;;;;;;;21.63;13.35;;;;;;;14.09;100.00;99714.41;5286641;28;20075;-80
2023/08/01 01:34:56;;;;;;;18.90;12.95;;;;;;;14.04;100.00;99718.09;5286789;28;20032;-79
2023/08/01 01:37:27;;;;;;;20.67;13.17;;;;;;;14.03;100.00;99718.16;5286533;28;20034;-79
2023/08/01 01:39:59;;;;;;;17.73;13.07;;;;;;;14.00;100.00;99718.28;5286251;28;20116;-80
2023/08/01 01:42:30;;;;;;;22.17;12.70;;;;;;;13.98;100.00;99715.72;5286517;28;20039;-80
2023/08/01 01:45:02;;;;;;;21.53;13.33;;;;;;;14.01;100.00;99715.59;5286384;28;20035;-80
2023/08/01 01:47:33;;;;;;;20.13;13.67;;;;;;;14.00;100.00;99713.06;5285144;28;20119;-81
2023/08/01 01:50:05;;;;;;;23.50;13.67;;;;;;;14.03;100.00;99715.53;5286374;28;20119;-81
2023/08/01 01:52:37;;;;;;;20.48;13.68;;;;;;;13.93;100.00;99715.09;5285990;28;20058;-81
2023/08/01 01:55:08;;;;;;;25.20;14.00;;;;;;;13.91;100.00;99709.06;5285802;28;20032;-81
2023/08/01 01:57:40;;;;;;;24.90;13.87;;;;;;;13.89;100.00;99710.06;5286367;28;20028;-80
2023/08/01 02:00:12;;;;;;;26.42;14.70;;;;;;;13.85;100.00;99704.94;5286258;28;20028;-80
2023/08/01 02:02:43;;;;;;;23.50;14.68;;;;;;;13.81;100.00;99710.38;5286384;28;20035;-81
2023/08/01 02:05:15;;;;;;;31.33;15.50;;;;;;;13.79;100.00;99715.69;5286087;28;20060;-81
2023/08/01 02:07:46;;;;;;;32.37;16.63;;;;;;;13.78;100.00;99710.50;5286266;28;20054;-81
2023/08/01 02:10:17;;;;;;;25.17;16.80;;;;;;;13.73;100.00;99710.69;5284873;28;20032;-81
2023/08/01 02:12:49;;;;;;;24.60;16.23;;;;;;;13.72;100.00;99713.38;5286054;28;20044;-80
2023/08/01 02:15:20;;;;;;;30.63;17.80;;;;;;;13.68;100.00;99705.69;5285948;28;20464;-80
2023/08/01 02:17:52;;;;;;;27.20;16.83;;;;;;;13.67;100.00;99703.97;5285562;28;20464;-80
2023/08/01 02:20:23;;;;;;;33.20;18.20;;;;;;;13.60;100.00;99706.91;5286571;28;20067;-79
2023/08/01 02:22:54;;;;;;;28.57;17.83;;;;;;;13.58;100.00;99712.22;5289209;28;20116;-80
2023/08/01 02:25:26;;;;;;;30.90;20.50;;;;;;;13.58;100.00;99711.38;5291549;28;20078;-81
2023/08/01 02:27:57;;;;;;;36.83;22.03;;;;;;;13.56;100.00;99714.06;5293322;28;20171;-81
2023/08/01 02:30:29;;;;;;;37.93;21.80;;;;;;;13.56;100.00;99714.06;5288893;28;20071;-81
2023/08/01 02:33:00;;;;;;;37.33;21.83;;;;;;;13.62;100.00;99705.94;5286277;28;20037;-80
2023/08/01 02:35:32;;;;;;;41.10;24.47;;;;;;;13.65;100.00;99712.81;5284461;28;20032;-81
2023/08/01 02:38:03;;;;;;;47.40;25.60;;;;;;;13.65;100.00;99718.91;5285229;28;20060;-80
2023/08/01 02:40:35;;;;;;;44.37;23.93;;;;;;;13.67;100.00;99719.69;5285515;28;20036;-81
2023/08/01 02:43:06;;;;;;;37.80;22.93;;;;;;;13.69;100.00;99724.88;5285453;28;20452;-81
2023/08/01 02:45:38;;;;;;;39.27;24.30;;;;;;;13.72;100.00;99727.34;5284836;28;20036;-80
2023/08/01 02:48:09;;;;;;;42.00;25.33;;;;;;;13.73;100.00;99730.81;5285269;28;20047;-80
2023/08/01 02:50:40;;;;;;;44.63;24.53;;;;;;;13.78;100.00;99729.72;5285207;28;20028;-81
2023/08/01 02:53:12;;;;;;;40.57;23.50;;;;;;;13.80;100.00;99740.13;5284699;28;20048;-80
2023/08/01 02:55:46;;;;;;;42.73;26.07;;;;;;;13.78;100.00;99734.94;5284592;28;20106;-80
2023/08/01 02:58:17;;;;;;;40.45;24.75;;;;;;;13.80;100.00;99730.50;5284934;28;20451;-79
2023/08/01 03:00:49;;;;;;;38.90;25.60;;;;;;;13.82;100.00;99727.81;5284669;28;20051;-80
2023/08/01 03:03:21;;;;;;;39.43;23.70;;;;;;;13.83;100.00;99729.53;5284847;28;20086;-82
2023/08/01 03:05:52;;;;;;;39.25;24.13;;;;;;;13.82;100.00;99723.41;5284862;28;20043;-80
2023/08/01 03:08:24;;;;;;;45.20;25.23;;;;;;;13.85;100.00;99725.06;5284858;28;20033;-80
2023/08/01 03:10:56;;;;;;;42.70;26.63;;;;;;;13.83;100.00;99722.50;5284365;28;20035;-80
2023/08/01 03:13:28;;;;;;;43.28;26.63;;;;;;;13.83;100.00;99713.81;5284360;28;20036;-79
2023/08/01 03:15:59;;;;;;;42.57;26.70;;;;;;;13.84;100.00;99724.19;5284603;28;20063;-81
2023/08/01 03:18:31;;;;;;;48.43;27.93;;;;;;;13.83;100.00;99725.13;5284390;28;20426;-81
2023/08/01 03:21:03;;;;;;;45.63;26.73;;;;;;;13.84;100.00;99723.34;5284304;28;20387;-80
2023/08/01 03:23:35;;;;;;;48.22;29.35;;;;;;;13.83;100.00;99725.13;5284141;28;20048;-81
2023/08/01 03:26:06;;;;;;;42.67;28.33;;;;;;;13.83;100.00;99722.50;5284511;28;20075;-80
2023/08/01 03:28:37;;;;;;;46.37;31.33;;;;;;;13.85;100.00;99727.69;5284035;28;20028;-80
2023/08/01 03:31:09;;;;;;;50.50;32.57;;;;;;;13.85;100.00;99725.06;5284172;28;20025;-80
2023/08/01 03:33:41;;;;;;;51.30;32.37;;;;;;;13.84;100.00;99724.19;5284548;28;20078;-81
2023/08/01 03:36:12;;;;;;;54.33;31.00;;;;;;;13.86;100.00;99726.75;5284764;28;20066;-80
2023/08/01 03:38:44;;;;;;;52.67;32.30;;;;;;;13.85;100.00;99732.91;5286671;28;20032;-80
2023/08/01 03:41:15;;;;;;;51.93;34.40;;;;;;;13.89;100.00;99734.47;5288708;28;20484;-80
2023/08/01 03:43:46;;;;;;;52.87;35.23;;;;;;;13.89;100.00;99728.38;5290051;28;20483;-81
2023/08/01 03:46:18;;;;;;;52.77;33.13;;;;;;;13.90;100.00;99722.25;5290314;28;20029;-79
2023/08/01 03:48:49;;;;;;;59.93;36.10;;;;;;;13.93;100.00;99733.44;5285857;28;20035;-80
2023/08/01 03:51:21;;;;;;;58.20;35.23;;;;;;;13.90;100.00;99733.56;5282830;28;20044;-80
2023/08/01 03:53:52;;;;;;;59.77;36.40;;;;;;;13.90;100.00;99741.41;5283554;28;20468;-81
2023/08/01 03:56:23;;;;;;;60.37;37.57;;;;;;;13.91;100.00;99740.50;5283594;28;20048;-79
2023/08/01 03:58:55;;;;;;;56.00;37.87;;;;;;;13.91;100.00;99737.03;5284041;28;20041;-80
2023/08/01 04:01:26;;;;;;;59.40;35.90;;;;;;;13.89;100.00;99733.63;5284188;28;20033;-80
2023/08/01 04:03:57;;;;;;;58.63;35.40;;;;;;;13.93;100.00;99732.59;5282861;28;20530;-81
2023/08/01 04:06:29;;;;;;;52.20;36.27;;;;;;;13.90;100.00;99732.72;5283782;28;20043;-82
2023/08/01 04:09:00;;;;;;;61.00;35.37;;;;;;;13.91;100.00;99731.78;5284093;28;20036;-82
2023/08/01 04:11:32;;;;;;;56.67;36.43;;;;;;;13.90;100.00;99732.72;5284042;28;20480;-82
2023/08/01 04:14:03;;;;;;;62.80;36.23;;;;;;;13.88;100.00;99730.16;5284444;28;20032;-83
2023/08/01 04:16:35;;;;;;;50.70;35.90;;;;;;;13.84;100.00;99739.06;5284390;28;20043;-80
2023/08/01 04:19:06;;;;;;;54.87;36.07;;;;;;;13.84;100.00;99733.81;5282870;28;20472;-82
2023/08/01 04:21:37;;;;;;;54.33;35.23;;;;;;;13.84;100.00;99744.28;5284003;28;20106;-81
2023/08/01 04:24:09;;;;;;;57.80;36.23;;;;;;;13.84;100.00;99739.91;5283994;28;20037;-82
2023/08/01 04:26:40;;;;;;;56.50;34.47;;;;;;;13.86;100.00;99738.09;5282208;28;20032;-80
2023/08/01 04:29:15;;;;;;;55.60;36.67;;;;;;;13.88;100.00;99731.91;5283724;28;20033;-81
2023/08/01 04:31:46;;;;;;;55.40;34.30;;;;;;;13.91;100.00;99729.16;5283632;28;20045;-80
2023/08/01 04:34:18;;;;;;;59.73;33.83;;;;;;;13.95;100.00;99726.34;5286643;28;20033;-81
2023/08/01 04:36:49;;;;;;;55.03;35.03;;;;;;;13.95;100.00;99736.81;5288137;28;20078;-80
2023/08/01 04:39:20;;;;;;;55.73;35.77;;;;;;;13.99;100.00;99724.44;5286574;28;20033;-82
2023/08/01 04:41:52;;;;;;;61.90;36.60;;;;;;;13.98;100.00;99741.09;5289726;28;20353;-80
2023/08/01 04:44:23;;;;;;;61.27;35.17;;;;;;;13.99;100.00;99735.78;5289889;28;20460;-80
2023/08/01 04:46:55;;;;;;;58.77;34.63;;;;;;;14.00;100.00;99734.00;5288021;28;20541;-81
2023/08/01 04:49:26;;;;;;;56.27;33.97;;;;;;;14.06;100.00;99736.38;5288241;28;20135;-80
2023/08/01 04:51:57;;;;;;;57.07;34.90;;;;;;;14.11;100.00;99744.88;5289303;28;20087;-80
2023/08/01 04:54:29;;;;;;;51.23;33.40;;;;;;;14.10;100.00;99750.19;5288896;28;20036;-81
2023/08/01 04:57:00;;;;;;;62.73;35.13;;;;;;;14.10;100.00;99753.63;5288294;28;20044;-80
2023/08/01 04:59:31;;;;;;;54.87;33.60;;;;;;;14.12;100.00;99756.19;5289418;28;20036;-80
2023/08/01 05:02:03;;;;;;;51.03;33.73;;;;;;;14.10;100.00;99760.66;5291525;28;20024;-82
2023/08/01 05:04:35;;;;;;;43.47;30.93;;;;;;;14.11;100.00;99752.72;5289366;28;20029;-80
2023/08/01 05:07:06;;;;;;;48.13;32.03;;;;;;;14.09;100.00;99754.56;5287042;28;20075;-80
2023/08/01 05:09:37;;;;;;;47.53;30.17;;;;;;;14.12;100.00;99757.06;5285675;28;20029;-79
2023/08/01 05:12:09;;;;;;;48.37;29.90;;;;;;;14.13;100.00;99747.44;5286418;28;20055;-79
2023/08/01 05:14:40;;;;;;;47.53;30.67;;;;;;;14.14;100.00;99751.75;5286397;28;20024;-81
2023/08/01 05:17:11;;;;;;;44.10;28.53;;;;;;;14.15;100.00;99762.19;5286761;28;20430;-79
2023/08/01 05:19:43;;;;;;;44.50;28.63;;;;;;;14.16;100.00;99766.47;5286562;28;20028;-80
2023/08/01 05:22:14;;;;;;;40.17;27.73;;;;;;;14.15;100.00;99750.81;5286050;28;20024;-79
2023/08/01 05:24:46;;;;;;;40.07;27.17;;;;;;;14.13;100.00;99756.13;5286251;28;20162;-79
2023/08/01 05:27:17;;;;;;;36.40;28.20;;;;;;;14.10;100.00;99752.78;5286545;28;20029;-80
2023/08/01 05:29:48;;;;;;;39.03;27.83;;;;;;;14.07;100.00;99761.66;5286288;28;20119;-81
2023/08/01 05:32:20;;;;;;;42.63;28.23;;;;;;;14.02;100.00;99754.00;5286607;28;20020;-78
2023/08/01 05:34:51;;;;;;;38.07;24.97;;;;;;;14.05;100.00;99758.22;5285041;28;20064;-81
2023/08/01 05:37:23;;;;;;;36.80;24.53;;;;;;;14.09;100.00;99762.44;5286247;28;20426;-81
2023/08/01 05:39:54;;;;;;;43.43;26.90;;;;;;;14.13;100.00;99766.59;5286433;28;20511;-81
2023/08/01 05:42:25;;;;;;;40.00;24.73;;;;;;;14.20;100.00;99765.44;5268203;28;20037;-80
2023/08/01 05:44:57;;;;;;;36.60;25.10;;;;;;;14.28;100.00;99765.09;5285792;28;20047;-82
2023/08/01 05:47:28;;;;;;;34.73;25.37;;;;;;;14.34;100.00;99771.81;5286571;28;20068;-81
2023/08/01 05:50:00;;;;;;;32.47;24.53;;;;;;;14.34;100.00;99777.06;5286036;28;20487;-80
2023/08/01 05:52:31;;;;;;;39.57;24.20;;;;;;;14.48;100.00;99771.22;5285475;28;20039;-81
2023/08/01 05:55:03;;;;;;;32.50;24.20;;;;;;;14.56;100.00;99774.34;5285991;28;20378;-81
2023/08/01 05:57:34;;;;;;;32.27;22.90;;;;;;;14.58;100.00;99770.72;5286101;28;20515;-81
2023/08/01 06:00:06;;;;;;;28.90;23.47;;;;;;;14.58;100.00;99775.97;5286197;28;20440;-81
2023/08/01 06:02:37;;;;;;;36.28;22.27;;;;;;;14.74;100.00;99777.94;5286535;28;20032;-82
2023/08/01 06:05:09;;;;;;;31.70;22.73;;;;;;;14.89;100.00;99777.22;5286461;28;20024;-81
2023/08/01 06:07:40;;;;;;;34.87;23.50;;;;;;;14.93;100.00;99778.75;5287948;28;20503;-81
2023/08/01 06:10:12;;;;;;;31.33;21.00;;;;;;;15.09;100.00;99783.31;5292481;28;20029;-80
2023/08/01 06:12:43;;;;;;;30.03;19.50;;;;;;;15.11;100.00;99781.44;5294002;28;20029;-80
2023/08/01 06:15:15;;;;;;;27.07;19.90;;;;;;;15.30;100.00;99784.88;5286823;28;20369;-82
2023/08/01 06:17:46;;;;;;;26.10;19.30;;;;;;;15.43;100.00;99786.94;5285650;28;20036;-79
2023/08/01 06:20:18;;;;;;;28.17;18.90;;;;;;;15.63;100.00;99785.94;5301081;28;20255;-81
2023/08/01 06:22:49;;;;;;;26.57;18.87;;;;;;;15.65;100.00;99784.09;5285112;28;20036;-82
2023/08/01 06:25:20;;;;;;;21.10;16.67;;;;;;;15.37;100.00;99792.47;5285299;28;20383;-80
2023/08/01 06:27:52;;;;;;;26.73;18.90;;;;;;;15.27;100.00;99797.31;5285410;28;20032;-82
2023/08/01 06:30:23;;;;;;;26.23;18.53;;;;;;;15.07;100.00;99793.00;5285298;28;20476;-79
2023/08/01 06:32:54;;;;;;;23.40;19.57;;;;;;;15.02;100.00;99800.25;5283875;28;20029;-81
2023/08/01 06:35:26;;;;;;;26.07;19.10;;;;;;;15.07;100.00;99791.25;5285215;28;20032;-80
2023/08/01 06:37:57;;;;;;;22.13;19.27;;;;;;;15.25;100.00;99794.75;5284674;28;20112;-80
2023/08/01 06:40:28;;;;;;;34.43;19.57;;;;;;;15.31;100.00;99794.47;5285340;28;20371;-80
2023/08/01 06:43:00;;;;;;;30.03;18.63;;;;;;;15.41;100.00;99794.88;5284997;28;20071;-80
2023/08/01 06:45:31;;;;;;;23.70;18.63;;;;;;;15.48;100.00;99804.13;5284780;28;20029;-80
2023/08/01 06:48:02;;;;;;;21.53;17.80;;;;;;;15.61;100.00;99799.13;5283657;28;20105;-80
2023/08/01 06:50:34;;;;;;;23.63;17.90;;;;;;;15.80;100.00;99795.66;5283677;28;20035;-80
2023/08/01 06:53:05;;;;;;;22.50;17.67;;;;;;;15.95;100.00;99804.53;5288388;28;20037;-79
2023/08/01 06:55:37;;;;;;;22.90;15.00;;;;;;;15.91;100.00;99809.09;5294381;28;20029;-80
2023/08/01 06:58:08;;;;;;;17.87;14.67;;;;;;;15.87;100.00;99825.94;5296858;28;20020;-80
2023/08/01 07:00:40;;;;;;;23.53;14.50;;;;;;;15.81;100.00;99818.34;5296851;28;20467;-81
2023/08/01 07:03:11;;;;;;;23.63;14.00;;;;;;;15.64;100.00;99827.88;5296223;28;20056;-80
2023/08/01 07:05:42;;;;;;;17.33;12.93;;;;;;;15.44;100.00;99822.75;5294618;28;20526;-80
2023/08/01 07:08:14;;;;;;;18.33;13.27;;;;;;;15.61;100.00;99821.94;5292591;28;20036;-81
2023/08/01 07:10:47;;;;;;;19.30;13.33;;;;;;;15.81;100.00;99823.59;5296761;28;20041;-81
2023/08/01 07:13:19;;;;;;;19.08;12.98;;;;;;;16.14;100.00;99820.22;5297266;28;20077;-79
2023/08/01 07:15:51;;;;;;;22.00;13.85;;;;;;;16.30;100.00;99831.63;5296287;28;20048;-83
2023/08/01 07:18:22;;;;;;;16.70;11.20;;;;;;;16.40;100.00;99835.50;5296618;28;20025;-80
2023/08/01 07:21:04;;;;;;;17.90;9.67;;;;;;;16.47;100.00;99829.88;5295194;28;20039;-81
2023/08/01 07:23:36;;;;;;;12.73;8.03;;;;;;;16.41;100.00;99829.28;5289729;28;20568;-81
2023/08/01 07:26:07;;;;;;;17.05;9.73;;;;;;;16.50;100.00;99822.72;5288104;28;20040;-81
2023/08/01 07:28:38;;;;;;;16.57;9.37;;;;;;;16.40;100.00;99821.47;5287003;28;20078;-81
2023/08/01 07:31:10;;;;;;;15.43;8.43;;;;;;;16.33;100.00;99830.63;5284954;28;20032;-81
2023/08/01 07:33:41;;;;;;;14.87;8.37;;;;;;;16.36;100.00;99825.22;5284923;28;20344;-81
2023/08/01 07:36:12;;;;;;;15.50;8.60;;;;;;;16.20;100.00;99833.03;5284848;28;20047;-81
2023/08/01 07:38:44;;;;;;;15.80;8.97;;;;;;;16.27;100.00;99828.31;5284582;28;20033;-82
2023/08/01 07:41:15;;;;;;;16.43;8.83;;;;;;;16.30;100.00;99833.41;5284102;28;20032;-80
2023/08/01 07:43:46;;;;;;;14.30;7.67;;;;;;;16.63;100.00;99846.59;5284053;28;20029;-82
2023/08/01 07:46:18;;;;;;;15.37;8.07;;;;;;;16.58;100.00;99832.81;5299819;28;20444;-84
2023/08/01 07:48:50;;;;;;;8.57;6.27;;;;;;;16.47;100.00;99837.78;5284327;28;20463;-83
2023/08/01 07:51:22;;;;;;;11.30;7.13;;;;;;;16.54;100.00;99850.53;5282792;28;20040;-81
2023/08/01 07:53:54;;;;;;;13.17;6.63;;;;;;;16.54;100.00;99850.53;5283851;28;20039;-81
2023/08/01 07:56:25;;;;;;;10.75;6.40;;;;;;;16.66;100.00;99841.13;5284041;28;20083;-82
2023/08/01 07:58:57;;;;;;;11.47;5.90;;;;;;;16.84;100.00;99847.22;5284303;28;20103;-80
2023/08/01 08:01:28;;;;;;;9.77;5.60;;;;;;;16.72;100.00;99838.19;5284974;28;20086;-81
2023/08/01 08:04:00;;;;;;;10.07;5.27;;;;;;;16.72;100.00;99853.13;5282816;28;20046;-79
2023/08/01 08:06:31;;;;;;;8.33;4.60;;;;;;;16.86;100.00;99841.91;5284641;28;20025;-81
2023/08/01 08:09:03;;;;;;;7.23;4.90;;;;;;;16.67;100.00;99849.91;5301324;28;20033;-81
2023/08/01 08:11:34;;;;;;;10.47;4.93;;;;;;;16.74;100.00;99841.59;5285487;28;20353;-82
2023/08/01 08:14:05;;;;;;;10.53;4.87;;;;;;;16.75;100.00;99847.72;5291570;28;20046;-80
2023/08/01 08:16:37;;;;;;;8.97;4.67;;;;;;;16.87;100.00;99851.50;5293015;28;20025;-80
2023/08/01 08:19:09;;;;;;;11.37;5.70;;;;;;;16.93;100.00;99851.16;5283897;28;20044;-80
2023/08/01 08:21:40;;;;;;;12.70;5.60;;;;;;;17.24;100.00;99852.97;5283547;28;20087;-81
2023/08/01 08:24:11;;;;;;;13.33;5.40;;;;;;;17.27;100.00;99850.16;5281959;28;20032;-79
2023/08/01 08:26:43;;;;;;;10.47;4.83;;;;;;;17.36;100.00;99854.06;5282986;28;20127;-82
2023/08/01 08:29:15;;;;;;;7.97;4.47;;;;;;;17.54;100.00;99868.00;5283469;28;20115;-82
2023/08/01 08:31:47;;;;;;;9.88;5.57;;;;;;;17.75;100.00;99876.47;5282005;28;20025;-81
2023/08/01 08:34:19;;;;;;;8.38;4.85;;;;;;;18.13;100.00;99872.56;5283388;28;20032;-82
2023/08/01 08:36:51;;;;;;;12.40;5.65;;;;;;;18.16;100.00;99867.97;5283214;28;20043;-81
2023/08/01 08:39:23;;;;;;;9.40;5.13;;;;;;;18.31;99.25;99878.56;5281879;28;20039;-80
2023/08/01 08:41:54;;;;;;;12.53;6.43;;;;;;;17.97;100.00;99857.66;5283893;28;20041;-81
2023/08/01 08:44:29;;;;;;;14.47;5.83;;;;;;;17.63;100.00;99856.94;5283291;28;20115;-81
2023/08/01 08:47:06;;;;;;;10.55;5.47;;;;;;;17.37;100.00;99876.00;5283125;28;20040;-81
2023/08/01 08:49:39;;;;;;;10.13;5.20;;;;;;;16.74;100.00;99873.19;5283575;28;20047;-81
2023/08/01 08:52:11;;;;;;;14.13;5.25;;;;;;;16.20;100.00;99864.59;5283086;28;20036;-80
2023/08/01 08:54:43;;;;;;;10.40;4.97;;;;;;;15.77;100.00;99870.22;5282542;28;20472;-80
2023/08/01 08:57:15;;;;;;;9.27;4.75;;;;;;;15.60;100.00;99868.38;5283405;28;20052;-80
2023/08/01 08:59:47;;;;;;;12.50;5.65;;;;;;;15.50;100.00;99872.34;5285039;28;20397;-81
2023/08/01 09:02:20;;;;;;;14.52;6.22;;;;;;;15.39;100.00;99877.28;5284914;28;20387;-79
2023/08/01 09:04:52;;;;;;;11.02;5.25;;;;;;;15.42;100.00;99879.75;5284205;28;20203;-80
2023/08/01 09:07:24;;;;;;;9.40;4.60;;;;;;;15.46;100.00;99871.66;5283659;28;20040;-80
2023/08/01 09:09:55;;;;;;;;;;;;;;;15.43;100.00;99878.84;5284308;28;20032;-81
2023/08/01 09:12:28;;;;;;;8.33;3.43;;;;;;;15.35;100.00;99878.34;5283347;28;20370;-81
2023/08/01 09:14:59;;;;;;;7.63;3.40;;;;;;;15.38;100.00;99876.44;5282768;28;20278;-81
2023/08/01 09:17:30;;;;;;;6.63;3.20;;;;;;;15.32;100.00;99874.09;5282775;28;20033;-82
2023/08/01 09:20:06;;;;;;;9.00;3.77;;;;;;;15.36;100.00;99885.28;5285051;28;20035;-81
2023/08/01 09:22:45;;;;;;;8.52;3.88;;;;;;;15.34;100.00;99892.41;5285694;28;20111;-81
2023/08/01 09:25:16;;;;;;;10.70;4.32;;;;;;;15.29;100.00;99884.72;5286933;28;20059;-81
2023/08/01 09:27:47;;;;;;;9.57;4.10;;;;;;;15.21;100.00;99885.06;5287787;28;20033;-80
2023/08/01 09:30:19;;;;;;;9.13;4.70;;;;;;;15.18;100.00;99885.22;5286486;28;20028;-80
2023/08/01 09:32:55;;;;;;;9.20;4.67;;;;;;;15.09;100.00;99894.38;5286776;28;20043;-82
2023/08/01 09:35:26;;;;;;;10.27;4.70;;;;;;;15.06;100.00;99897.16;5287474;28;20033;-81
2023/08/01 09:38:00;;;;;;;8.90;4.13;;;;;;;14.93;100.00;99890.75;5287296;28;20103;-81
2023/08/01 09:40:39;;;;;;;7.13;3.35;;;;;;;14.77;100.00;99901.09;5286219;28;20029;-80
2023/08/01 09:43:13;;;;;;;4.80;2.70;;;;;;;14.40;100.00;99898.25;5286247;28;20029;-80
2023/08/01 09:45:54;;;;;;;7.50;2.80;;;;;;;14.33;100.00;99904.69;5286110;28;20440;-80
2023/08/01 09:48:27;;;;;;;5.82;3.03;;;;;;;14.39;100.00;99900.94;5286223;28;20047;-81
2023/08/01 09:51:09;;;;;;;10.13;3.28;;;;;;;14.52;100.00;99901.25;5285813;28;20053;-81
2023/08/01 09:53:54;;;;;;;11.43;3.30;;;;;;;14.69;100.00;99901.41;5286489;28;20115;-80
2023/08/01 09:56:27;;;;;;;8.40;3.67;;;;;;;15.07;100.00;99900.63;5288211;28;20048;-80
2023/08/01 09:58:59;;;;;;;7.30;3.47;;;;;;;15.11;100.00;99907.44;5288234;28;20040;-81
2023/08/01 10:01:32;;;;;;;6.20;2.92;;;;;;;15.41;100.00;99909.59;5287455;28;20108;-81
2023/08/01 10:04:07;;;;;;;7.10;3.60;;;;;;;16.13;100.00;99905.25;5285284;28;20036;-81
2023/08/01 10:06:44;;;;;;;6.88;3.38;;;;;;;16.89;100.00;99910.19;5285928;28;20056;-81
2023/08/01 10:09:17;;;;;;;10.40;3.85;;;;;;;17.06;100.00;99914.53;5286472;28;20040;-81
2023/08/01 10:11:51;;;;;;;8.30;3.72;;;;;;;18.61;100.00;99919.88;5285671;28;20029;-81
2023/08/01 10:14:23;;;;;;;7.30;3.30;;;;;;;19.85;93.37;99922.72;5293812;28;20074;-81
2023/08/01 10:16:56;;;;;;;9.57;3.55;;;;;;;20.71;92.64;99915.31;5296700;28;20064;-81
2023/08/01 10:19:31;;;;;;;7.80;3.78;;;;;;;21.40;83.96;99928.16;5299170;28;20035;-81
2023/08/01 10:22:04;;;;;;;9.23;3.40;;;;;;;21.74;80.54;99926.56;5296328;28;20028;-80
2023/08/01 10:24:37;;;;;;;11.30;3.70;;;;;;;21.32;84.30;99923.38;5291740;28;20025;-81
2023/08/01 10:27:12;;;;;;;7.40;3.63;;;;;;;20.42;81.10;99917.28;5292231;28;20383;-82
2023/08/01 10:29:44;;;;;;;10.27;3.72;;;;;;;19.02;90.09;99914.75;5293405;28;20041;-82
2023/08/01 10:32:17;;;;;;;10.27;4.17;;;;;;;18.33;91.51;99916.25;5291676;28;20041;-80
2023/08/01 10:34:51;;;;;;;9.23;4.53;;;;;;;17.86;95.64;99926.78;5274149;28;20050;-82
2023/08/01 10:37:23;;;;;;;13.18;4.72;;;;;;;17.67;97.14;99918.22;5292729;28;20480;-79
2023/08/01 10:39:59;;;;;;;9.83;3.90;;;;;;;17.71;98.23;99927.66;5289227;28;20192;-79
2023/08/01 10:42:50;;;;;;;11.35;3.83;;;;;;;17.72;98.69;99921.44;5287926;28;20549;-80
2023/08/01 10:45:26;;;;;;;9.45;3.95;;;;;;;17.71;95.51;99937.34;5286078;28;20029;-81
2023/08/01 10:48:11;;;;;;;6.07;3.17;;;;;;;17.63;97.85;99930.72;5286640;28;20064;-82
2023/08/01 10:50:42;;;;;;;9.63;3.40;;;;;;;17.55;97.14;99927.69;5286304;28;20464;-81
2023/08/01 10:53:15;;;;;;;10.57;4.63;;;;;;;17.36;98.03;99924.34;5287550;28;20028;-81
2023/08/01 10:55:46;;;;;;;8.65;4.00;;;;;;;17.31;99.31;99927.25;5287161;28;20464;-80
2023/08/01 10:58:18;;;;;;;10.65;4.05;;;;;;;17.30;97.70;99934.28;5288012;28;20035;-81
2023/08/01 11:00:57;;;;;;;12.87;4.17;;;;;;;17.72;96.23;99942.53;5286910;28;20028;-82
2023/08/01 11:03:36;;;;;;;11.82;4.25;;;;;;;18.15;94.81;99948.03;5287020;28;20249;-81
2023/08/01 11:06:08;;;;;;;12.05;3.80;;;;;;;17.90;94.13;99948.56;5286357;28;20426;-81
2023/08/01 11:08:40;;;;;;;8.73;4.33;;;;;;;17.60;95.52;99946.72;5287151;28;20033;-81
2023/08/01 11:11:13;;;;;;;10.60;3.63;;;;;;;17.18;98.38;99947.25;5286016;28;20383;-81
2023/08/01 11:13:53;;;;;;;9.15;3.90;;;;;;;17.09;100.00;99951.25;5268039;28;20078;-83
2023/08/01 11:16:25;;;;;;;9.45;4.00;;;;;;;16.51;100.00;99949.81;5285673;28;20025;-81
2023/08/01 11:18:57;;;;;;;8.70;3.45;;;;;;;16.17;100.00;99949.72;5285004;28;20028;-81
2023/08/01 11:21:28;;;;;;;7.57;3.10;;;;;;;16.10;100.00;99945.72;5285139;28;20059;-81
2023/08/01 11:23:59;;;;;;;7.37;3.00;;;;;;;16.23;100.00;99945.97;5283662;28;20036;-82
2023/08/01 11:26:32;;;;;;;8.97;3.43;;;;;;;16.37;100.00;99943.50;5284680;28;20430;-81
2023/08/01 11:29:04;;;;;;;9.07;3.97;;;;;;;16.52;100.00;99951.53;5285089;28;20028;-82
2023/08/01 11:31:35;;;;;;;9.30;3.13;;;;;;;16.79;100.00;99954.50;5284735;28;20028;-81
2023/08/01 11:34:10;;;;;;;10.73;4.03;;;;;;;16.92;100.00;99954.75;5283230;28;20112;-82
2023/08/01 11:36:41;;;;;;;9.40;3.40;;;;;;;17.08;100.00;99957.44;5286153;28;20422;-82